createdAt,value
2023-01-08T00:00:01.785Z,1.42
2023-01-08T00:02:28.948Z,1.55
2023-01-08T00:04:56.105Z,1.50
2023-01-08T00:07:23.185Z,1.38
2023-01-08T00:09:50.690Z,1.50
2023-01-08T00:12:17.858Z,1.60
2023-01-08T00:14:45.019Z,1.40
2023-01-08T00:17:12.261Z,1.55
2023-01-08T00:19:41.987Z,1.35
2023-01-08T00:22:09.190Z,1.35
2023-01-08T00:24:36.393Z,1.30
2023-01-08T00:27:03.485Z,1.38
2023-01-08T00:29:30.602Z,1.17
2023-01-08T00:31:57.899Z,1.33
2023-01-08T00:34:25.053Z,1.50
2023-01-08T00:36:52.180Z,1.30
2023-01-08T00:39:19.276Z,1.50
2023-01-08T00:41:46.406Z,1.40
2023-01-08T00:44:13.707Z,1.52
2023-01-08T00:46:40.838Z,1.30
2023-01-08T00:49:07.880Z,1.58
2023-01-08T00:51:35.028Z,1.40
2023-01-08T00:54:02.168Z,1.73
2023-01-08T00:56:29.226Z,1.95
2023-01-08T00:58:59.271Z,1.70
2023-01-08T01:01:26.601Z,1.77
2023-01-08T01:03:53.826Z,1.38
2023-01-08T01:06:21.061Z,1.30
2023-01-08T01:08:48.891Z,0.85
2023-01-08T01:11:26.354Z,0.90
2023-01-08T01:13:55.105Z,0.57
2023-01-08T01:16:22.343Z,0.43
2023-01-08T01:18:49.507Z,0.50
2023-01-08T01:21:27.462Z,0.88
2023-01-08T01:23:55.746Z,0.50
2023-01-08T01:26:23.147Z,0.93
2023-01-08T01:28:51.693Z,0.70
2023-01-08T01:31:19.353Z,0.70
2023-01-08T01:33:46.853Z,0.60
2023-01-08T01:36:14.716Z,0.80
2023-01-08T01:38:45.810Z,0.80
2023-01-08T01:41:19.473Z,1.03
2023-01-08T01:43:46.555Z,0.70
2023-01-08T01:46:19.505Z,0.68
2023-01-08T01:48:47.549Z,0.95
2023-01-08T01:51:14.790Z,0.85
2023-01-08T01:53:41.930Z,0.57
2023-01-08T01:56:09.721Z,0.90
2023-01-08T01:58:36.974Z,0.60
2023-01-08T02:01:05.679Z,0.82
2023-01-08T02:03:37.951Z,1.27
2023-01-08T02:06:14.313Z,0.68
2023-01-08T02:08:47.275Z,0.60
2023-01-08T02:11:27.178Z,0.88
2023-01-08T02:14:01.397Z,1.08
2023-01-08T02:16:39.037Z,0.75
2023-01-08T02:19:15.198Z,0.65
2023-01-08T02:22:02.814Z,0.93
2023-01-08T02:24:29.853Z,0.82
2023-01-08T02:26:58.044Z,0.65
2023-01-08T02:29:28.402Z,0.73
2023-01-08T02:31:56.019Z,0.90
2023-01-08T02:34:23.073Z,0.80
2023-01-08T02:36:57.044Z,0.90
2023-01-08T02:39:24.256Z,1.02
2023-01-08T02:41:54.026Z,1.23
2023-01-08T02:44:44.405Z,0.88
2023-01-08T02:47:12.834Z,1.02
2023-01-08T02:49:43.080Z,1.13
2023-01-08T02:52:12.244Z,1.40
2023-01-08T02:54:40.527Z,1.48
2023-01-08T02:57:12.383Z,1.63
2023-01-08T02:59:40.424Z,1.98
2023-01-08T03:02:08.900Z,1.23
2023-01-08T03:04:38.988Z,1.75
2023-01-08T03:07:06.129Z,2.22
2023-01-08T03:09:33.357Z,2.58
2023-01-08T03:12:00.443Z,2.10
2023-01-08T03:14:48.023Z,2.50
2023-01-08T03:17:20.506Z,2.53
2023-01-08T03:19:53.104Z,2.33
2023-01-08T03:22:21.266Z,2.28
2023-01-08T03:24:50.569Z,2.35
2023-01-08T03:27:19.707Z,2.63
2023-01-08T03:29:48.211Z,2.00
2023-01-08T03:32:17.025Z,2.45
2023-01-08T03:34:45.577Z,1.70
2023-01-08T03:37:13.776Z,2.03
2023-01-08T03:40:01.095Z,1.70
2023-01-08T03:42:29.641Z,2.10
2023-01-08T03:44:56.708Z,1.48
2023-01-08T03:47:25.066Z,1.38
2023-01-08T03:49:53.531Z,1.52
2023-01-08T03:52:24.983Z,1.65
2023-01-08T03:54:52.427Z,1.05
2023-01-08T03:57:19.718Z,1.15
2023-01-08T03:59:47.274Z,0.93
2023-01-08T04:02:14.909Z,0.93
2023-01-08T04:04:42.208Z,1.05
2023-01-08T04:07:11.291Z,1.10
2023-01-08T04:09:38.581Z,1.10
2023-01-08T04:12:05.883Z,1.02
2023-01-08T04:14:32.965Z,0.90
2023-01-08T04:17:00.056Z,1.02
2023-01-08T04:19:27.186Z,1.40
2023-01-08T04:21:54.312Z,1.40
2023-01-08T04:24:21.491Z,1.35
2023-01-08T04:26:48.881Z,1.38
2023-01-08T04:29:16.083Z,1.50
2023-01-08T04:31:45.157Z,1.23
2023-01-08T04:34:12.411Z,1.25
2023-01-08T04:36:39.767Z,1.02
2023-01-08T04:39:08.253Z,1.10
2023-01-08T04:41:35.293Z,1.40
2023-01-08T04:44:02.430Z,1.15
2023-01-08T04:46:29.555Z,1.35
2023-01-08T04:48:56.914Z,1.38
2023-01-08T04:51:25.877Z,1.65
2023-01-08T04:53:53.081Z,1.77
2023-01-08T04:56:20.242Z,1.90
2023-01-08T04:58:47.409Z,1.70
2023-01-08T05:01:16.804Z,1.77
2023-01-08T05:03:43.949Z,1.88
2023-01-08T05:06:11.122Z,1.30
2023-01-08T05:08:38.362Z,1.65
2023-01-08T05:11:05.550Z,2.10
2023-01-08T05:13:32.621Z,1.50
2023-01-08T05:16:00.945Z,2.05
2023-01-08T05:18:28.799Z,1.67
2023-01-08T05:20:56.340Z,1.85
2023-01-08T05:23:23.427Z,1.90
2023-01-08T05:25:50.574Z,1.98
2023-01-08T05:28:17.761Z,1.60
2023-01-08T05:30:44.895Z,2.20
2023-01-08T05:33:12.041Z,2.15
2023-01-08T05:35:40.471Z,1.67
2023-01-08T05:38:07.742Z,1.95
2023-01-08T05:40:35.147Z,1.50
2023-01-08T05:43:02.653Z,1.70
2023-01-08T05:45:29.792Z,1.70
2023-01-08T05:47:56.856Z,1.48
2023-01-08T05:50:24.044Z,1.67
2023-01-08T05:52:51.190Z,1.60
2023-01-08T05:55:19.087Z,1.30
2023-01-08T05:57:46.226Z,1.40
2023-01-08T06:00:14.283Z,1.20
2023-01-08T06:02:41.486Z,1.02
2023-01-08T06:05:08.753Z,1.27
2023-01-08T06:07:35.854Z,1.45
2023-01-08T06:10:02.932Z,1.10
2023-01-08T06:12:30.073Z,0.80
2023-01-08T06:14:57.210Z,1.33
2023-01-08T06:17:24.300Z,1.15
2023-01-08T06:19:51.436Z,1.00
2023-01-08T06:22:18.566Z,0.90
2023-01-08T06:24:45.842Z,0.80
2023-01-08T06:27:12.915Z,0.93
2023-01-08T06:29:40.035Z,1.17
2023-01-08T06:32:07.174Z,1.15
2023-01-08T06:34:34.257Z,1.15
2023-01-08T06:37:01.425Z,1.30
2023-01-08T06:39:28.678Z,1.05
2023-01-08T06:41:55.838Z,1.55
2023-01-08T06:44:23.088Z,0.93
2023-01-08T06:46:50.418Z,1.17
2023-01-08T06:49:17.799Z,0.90
2023-01-08T06:51:44.871Z,0.90
2023-01-08T06:54:13.672Z,0.80
2023-01-08T06:56:53.024Z,1.42
2023-01-08T06:59:21.051Z,2.45
2023-01-08T07:01:48.308Z,1.20
2023-01-08T07:04:15.471Z,0.80
2023-01-08T07:06:42.562Z,1.10
2023-01-08T07:09:12.931Z,0.98
2023-01-08T07:11:40.430Z,1.20
2023-01-08T07:14:07.620Z,1.42
2023-01-08T07:16:34.752Z,1.13
2023-01-08T07:19:01.841Z,1.50
2023-01-08T07:21:28.956Z,1.52
2023-01-08T07:23:56.098Z,1.20
2023-01-08T07:26:23.275Z,1.30
2023-01-08T07:28:50.338Z,1.23
2023-01-08T07:31:17.508Z,1.35
2023-01-08T07:33:45.058Z,1.13
2023-01-08T07:36:12.298Z,0.93
2023-01-08T07:38:39.483Z,0.95
2023-01-08T07:41:06.539Z,0.80
2023-01-08T07:43:35.233Z,1.05
2023-01-08T07:46:03.658Z,1.40
2023-01-08T07:48:30.787Z,1.52
2023-01-08T07:51:07.760Z,1.17
2023-01-08T07:53:35.540Z,1.02
2023-01-08T07:56:07.841Z,1.23
2023-01-08T07:58:35.146Z,1.00
2023-01-08T08:01:02.560Z,1.02
2023-01-08T08:03:29.791Z,1.08
2023-01-08T08:05:56.993Z,1.30
2023-01-08T08:08:24.095Z,1.23
2023-01-08T08:10:51.209Z,1.15
2023-01-08T08:13:18.347Z,1.58
2023-01-08T08:15:45.556Z,1.35
2023-01-08T08:18:12.679Z,1.90
2023-01-08T08:20:40.121Z,1.23
2023-01-08T08:23:13.793Z,2.08
2023-01-08T08:25:41.641Z,1.10
2023-01-08T08:28:08.924Z,1.70
2023-01-08T08:30:38.775Z,1.30
2023-01-08T08:33:07.937Z,1.10
2023-01-08T08:35:35.475Z,0.70
2023-01-08T08:38:02.789Z,1.40
2023-01-08T08:40:30.126Z,1.02
2023-01-08T08:43:01.066Z,1.30
2023-01-08T08:45:28.533Z,1.10
2023-01-08T08:47:56.098Z,1.13
2023-01-08T08:50:23.694Z,1.27
2023-01-08T08:52:50.921Z,1.15
2023-01-08T08:55:18.350Z,1.50
2023-01-08T08:57:46.198Z,2.15
2023-01-08T09:00:14.009Z,1.30
2023-01-08T09:02:41.255Z,1.85
2023-01-08T09:05:08.993Z,1.73
2023-01-08T09:07:36.143Z,2.03
2023-01-08T09:10:03.570Z,1.20
2023-01-08T09:12:30.868Z,0.77
2023-01-08T09:14:58.109Z,0.75
2023-01-08T09:17:25.960Z,0.70
2023-01-08T09:19:53.252Z,0.65
2023-01-08T09:22:20.522Z,0.55
2023-01-08T09:24:47.667Z,1.02
2023-01-08T09:27:15.386Z,0.60
2023-01-08T09:29:42.511Z,0.80
2023-01-08T09:32:09.952Z,0.95
2023-01-08T09:34:38.154Z,0.70
2023-01-08T09:37:05.770Z,0.93
2023-01-08T09:39:32.939Z,0.55
2023-01-08T09:42:02.287Z,0.50
2023-01-08T09:44:31.997Z,0.80
2023-01-08T09:46:59.277Z,1.25
2023-01-08T09:49:29.384Z,0.80
2023-01-08T09:51:56.677Z,1.00
2023-01-08T09:54:25.730Z,0.70
2023-01-08T09:56:53.547Z,1.20
2023-01-08T09:59:25.257Z,0.70
2023-01-08T10:02:02.628Z,0.90
2023-01-08T10:04:34.057Z,1.25
2023-01-08T10:07:04.715Z,0.93
2023-01-08T10:09:33.362Z,0.90
2023-01-08T10:12:01.949Z,1.50
2023-01-08T10:14:31.336Z,0.90
2023-01-08T10:17:01.062Z,0.98
2023-01-08T10:19:28.187Z,1.42
2023-01-08T10:21:55.472Z,0.90
2023-01-08T10:24:35.858Z,0.60
2023-01-08T10:27:07.366Z,0.73
2023-01-08T10:29:34.627Z,1.35
2023-01-08T10:32:08.291Z,1.00
2023-01-08T10:34:48.923Z,0.73
2023-01-08T10:37:27.436Z,1.20
2023-01-08T10:40:04.295Z,0.85
2023-01-08T10:42:35.061Z,1.00
2023-01-08T10:45:06.916Z,0.80
2023-01-08T10:47:36.518Z,1.00
2023-01-08T10:50:04.683Z,0.45
2023-01-08T10:52:33.294Z,0.75
2023-01-08T10:55:14.572Z,0.73
2023-01-08T10:57:54.801Z,1.57
2023-01-08T11:00:26.048Z,0.50
2023-01-08T11:02:53.411Z,1.15
2023-01-08T11:05:20.812Z,0.60
2023-01-08T11:07:53.421Z,0.82
2023-01-08T11:10:22.553Z,0.85
2023-01-08T11:12:54.866Z,1.02
2023-01-08T11:15:22.050Z,0.98
2023-01-08T11:17:49.243Z,0.77
2023-01-08T11:20:21.840Z,1.20
2023-01-08T11:22:49.007Z,0.95
2023-01-08T11:25:20.842Z,0.77
2023-01-08T11:27:48.121Z,1.27
2023-01-08T11:30:23.573Z,1.00
2023-01-08T11:33:02.452Z,0.90
2023-01-08T11:35:32.104Z,1.00
2023-01-08T11:38:00.846Z,1.17
2023-01-08T11:40:27.936Z,0.80
2023-01-08T11:43:02.511Z,1.27
2023-01-08T11:45:35.766Z,1.13
2023-01-08T11:48:23.570Z,0.90
2023-01-08T11:51:09.385Z,1.23
2023-01-08T11:53:36.422Z,1.77
2023-01-08T11:56:09.396Z,0.73
2023-01-08T11:58:36.459Z,0.90
2023-01-08T12:01:14.847Z,1.13
2023-01-08T12:03:50.616Z,0.98
2023-01-08T12:06:17.725Z,0.93
2023-01-08T12:08:50.999Z,0.77
2023-01-08T12:11:24.060Z,1.23
2023-01-08T12:14:06.187Z,0.70
2023-01-08T12:19:11.434Z,1.15
2023-01-08T12:21:47.583Z,0.88
2023-01-08T12:24:20.477Z,1.02
2023-01-08T12:27:07.670Z,0.85
2023-01-08T12:29:37.808Z,1.20
2023-01-08T12:32:23.518Z,1.10
2023-01-08T12:34:53.750Z,1.42
2023-01-08T12:37:24.386Z,0.90
2023-01-08T12:39:56.633Z,0.98
2023-01-08T12:42:28.209Z,1.08
2023-01-08T12:44:55.880Z,0.75
2023-01-08T12:47:25.627Z,1.25
2023-01-08T12:50:15.845Z,1.67
2023-01-08T12:52:56.191Z,0.90
2023-01-08T12:55:30.758Z,0.45
2023-01-08T12:58:18.514Z,0.85
2023-01-08T13:01:18.076Z,0.80
2023-01-08T13:03:45.675Z,0.82
2023-01-08T13:06:14.860Z,0.85
2023-01-08T13:08:45.202Z,0.63
2023-01-08T13:11:13.402Z,0.93
2023-01-08T13:13:45.070Z,1.20
2023-01-08T13:16:12.185Z,0.75
2023-01-08T13:18:39.613Z,0.90
2023-01-08T13:21:14.755Z,0.93
2023-01-08T13:23:41.830Z,0.70
2023-01-08T13:26:08.975Z,1.23
2023-01-08T13:28:35.997Z,0.70
2023-01-08T13:31:29.478Z,0.52
2023-01-08T13:33:56.681Z,0.60
2023-01-08T13:36:25.217Z,0.57
2023-01-08T13:39:02.383Z,0.60
2023-01-08T13:41:29.528Z,0.50
2023-01-08T13:43:59.280Z,0.70
2023-01-08T13:46:26.608Z,0.38
2023-01-08T13:48:53.758Z,0.77
2023-01-08T13:51:28.345Z,0.95
2023-01-08T13:53:55.570Z,0.50
2023-01-08T13:56:22.778Z,0.60
2023-01-08T13:58:54.272Z,0.50
2023-01-08T14:01:23.546Z,0.47
2023-01-08T14:03:50.890Z,1.08
2023-01-08T14:06:22.294Z,0.50
2023-01-08T14:08:50.969Z,0.70
2023-01-08T14:11:18.486Z,0.50
2023-01-08T14:13:45.801Z,0.57
2023-01-08T14:16:14.805Z,0.47
2023-01-08T14:18:42.764Z,0.57
2023-01-08T14:21:10.202Z,0.50
2023-01-08T14:23:38.868Z,0.43
2023-01-08T14:26:08.455Z,0.55
2023-01-08T14:28:35.589Z,0.60
2023-01-08T14:31:02.764Z,1.00
2023-01-08T14:33:32.858Z,0.52
2023-01-08T14:36:00.612Z,0.50
2023-01-08T14:38:27.839Z,0.75
2023-01-08T14:41:12.729Z,0.40
2023-01-08T14:43:40.849Z,0.45
2023-01-08T14:46:16.444Z,0.57
2023-01-08T14:48:45.085Z,0.35
2023-01-08T14:51:22.768Z,0.40
2023-01-08T14:53:51.737Z,0.75
2023-01-08T14:56:21.910Z,0.52
2023-01-08T14:58:49.441Z,0.40
2023-01-08T15:01:17.790Z,0.50
2023-01-08T15:03:45.883Z,0.45
2023-01-08T15:06:14.089Z,0.40
2023-01-08T15:08:41.200Z,0.50
2023-01-08T15:11:20.497Z,0.43
2023-01-08T15:13:48.569Z,0.65
2023-01-08T15:16:33.732Z,0.60
2023-01-08T15:19:06.033Z,0.95
2023-01-08T15:21:33.779Z,0.60
2023-01-08T15:24:01.579Z,0.60
2023-01-08T15:26:28.928Z,0.93
2023-01-08T15:29:00.423Z,0.80
2023-01-08T15:31:45.413Z,0.70
2023-01-08T15:34:12.768Z,0.60
2023-01-08T15:36:39.899Z,0.60
2023-01-08T15:39:07.808Z,1.00
2023-01-08T15:41:58.905Z,0.75
2023-01-08T15:44:26.778Z,1.02
2023-01-08T15:46:53.945Z,0.70
2023-01-08T15:49:21.075Z,1.08
2023-01-08T15:51:49.280Z,0.80
2023-01-08T15:54:16.884Z,1.20
2023-01-08T15:56:44.255Z,1.27
2023-01-08T15:59:12.191Z,0.85
2023-01-08T16:01:39.505Z,1.05
2023-01-08T16:04:06.710Z,1.20
2023-01-08T16:06:34.027Z,0.93
2023-01-08T16:09:01.386Z,1.02
2023-01-08T16:11:28.591Z,1.30
2023-01-08T16:13:55.948Z,0.90
2023-01-08T16:16:23.155Z,1.10
2023-01-08T16:18:50.499Z,0.90
2023-01-08T16:21:17.630Z,1.15
2023-01-08T16:23:44.749Z,1.35
2023-01-08T16:26:13.062Z,1.55
2023-01-08T16:28:40.207Z,1.20
2023-01-08T16:31:07.857Z,1.73
2023-01-08T16:33:35.342Z,1.20
2023-01-08T16:36:03.816Z,1.10
2023-01-08T16:38:33.381Z,1.25
2023-01-08T16:41:00.839Z,1.40
2023-01-08T16:43:28.873Z,1.52
2023-01-08T16:45:56.202Z,1.25
2023-01-08T16:48:24.007Z,1.83
2023-01-08T16:50:51.086Z,1.30
2023-01-08T16:53:18.927Z,1.08
2023-01-08T16:55:46.088Z,1.58
2023-01-08T16:58:13.392Z,0.90
2023-01-08T17:00:41.078Z,1.00
2023-01-08T17:03:11.572Z,1.00
2023-01-08T17:05:38.750Z,1.27
2023-01-08T17:08:07.901Z,1.02
2023-01-08T17:10:35.269Z,1.00
2023-01-08T17:13:02.322Z,1.13
2023-01-08T17:15:29.535Z,1.10
2023-01-08T17:17:58.521Z,0.90
2023-01-08T17:20:25.938Z,0.90
2023-01-08T17:22:53.189Z,1.17
2023-01-08T17:25:20.549Z,1.27
2023-01-08T17:27:47.668Z,0.65
2023-01-08T17:30:14.923Z,0.80
2023-01-08T17:32:42.654Z,0.80
2023-01-08T17:35:09.922Z,0.73
2023-01-08T17:37:37.152Z,1.15
2023-01-08T17:40:04.734Z,1.20
2023-01-08T17:42:31.890Z,0.88
2023-01-08T17:45:05.622Z,0.82
2023-01-08T17:47:32.865Z,0.98
2023-01-08T17:50:02.163Z,0.95
2023-01-08T17:52:29.412Z,1.17
2023-01-08T17:54:56.621Z,1.50
2023-01-08T17:57:23.853Z,0.75
2023-01-08T17:59:51.043Z,1.23
2023-01-08T18:02:18.508Z,0.90
2023-01-08T18:04:45.819Z,1.20
2023-01-08T18:07:13.204Z,1.02
2023-01-08T18:09:40.346Z,0.90
2023-01-08T18:12:07.715Z,0.93
2023-01-08T18:14:39.054Z,0.82
2023-01-08T18:17:06.697Z,0.90
2023-01-08T18:19:33.905Z,0.68
2023-01-08T18:22:01.390Z,0.82
2023-01-08T18:24:28.595Z,0.80
2023-01-08T18:26:55.817Z,1.40
2023-01-08T18:29:22.894Z,0.90
2023-01-08T18:31:50.125Z,1.27
2023-01-08T18:34:17.289Z,0.80
2023-01-08T18:36:44.635Z,1.00
2023-01-08T18:39:12.447Z,0.80
2023-01-08T18:41:58.254Z,1.38
2023-01-08T18:44:25.448Z,1.02
2023-01-08T18:46:52.568Z,1.17
2023-01-08T18:49:20.203Z,0.95
2023-01-08T18:51:47.659Z,0.98
2023-01-08T18:54:17.539Z,0.63
2023-01-08T18:56:46.496Z,0.80
2023-01-08T18:59:13.707Z,1.10
2023-01-08T19:01:41.615Z,1.05
2023-01-08T19:04:11.266Z,0.90
2023-01-08T19:06:38.392Z,0.90
2023-01-08T19:09:05.521Z,1.15
2023-01-08T19:11:32.685Z,1.20
2023-01-08T19:13:59.919Z,0.88
2023-01-08T19:16:27.230Z,1.20
2023-01-08T19:18:54.677Z,0.85
2023-01-08T19:21:21.812Z,0.90
2023-01-08T19:23:49.035Z,0.77
2023-01-08T19:26:16.724Z,0.80
2023-01-08T19:28:44.672Z,1.05
2023-01-08T19:31:13.181Z,1.10
2023-01-08T19:33:40.710Z,1.30
2023-01-08T19:36:16.351Z,1.52
2023-01-08T19:38:44.796Z,1.05
2023-01-08T19:41:30.946Z,0.90
2023-01-08T19:43:58.487Z,1.00
2023-01-08T19:46:25.630Z,1.05
2023-01-08T19:48:52.860Z,1.00
2023-01-08T19:51:20.127Z,0.95
2023-01-08T19:53:47.333Z,0.70
2023-01-08T19:56:15.343Z,0.70
2023-01-08T19:58:43.115Z,0.82
2023-01-08T20:01:14.418Z,0.88
2023-01-08T20:03:42.182Z,1.35
2023-01-08T20:06:20.506Z,0.85
2023-01-08T20:08:48.433Z,0.80
2023-01-08T20:11:16.352Z,1.00
2023-01-08T20:13:43.908Z,1.00
2023-01-08T20:16:15.281Z,0.90
2023-01-08T20:18:42.765Z,1.30
2023-01-08T20:21:10.985Z,1.20
2023-01-08T20:23:39.862Z,1.10
2023-01-08T20:26:08.179Z,0.80
2023-01-08T20:28:36.425Z,1.15
2023-01-08T20:31:07.432Z,0.98
2023-01-08T20:33:35.443Z,0.80
2023-01-08T20:36:06.951Z,0.60
2023-01-08T20:38:34.081Z,1.25
2023-01-08T20:41:01.251Z,0.95
2023-01-08T20:43:28.367Z,1.02
2023-01-08T20:45:55.560Z,1.00
2023-01-08T20:48:22.707Z,0.80
2023-01-08T20:50:56.855Z,1.02
2023-01-08T20:53:24.060Z,0.90
2023-01-08T20:55:51.625Z,0.90
2023-01-08T20:58:19.060Z,1.17
2023-01-08T21:00:46.374Z,1.00
2023-01-08T21:03:13.503Z,0.70
2023-01-08T21:05:40.891Z,0.85
2023-01-08T21:08:08.349Z,2.33
2023-01-08T21:10:35.811Z,4.53
2023-01-08T21:13:03.107Z,5.30
2023-01-08T21:15:30.179Z,2.17
2023-01-08T21:17:57.474Z,1.42
2023-01-08T21:20:24.713Z,1.52
2023-01-08T21:22:51.827Z,0.70
2023-01-08T21:25:19.117Z,0.95
2023-01-08T21:27:46.243Z,1.00
2023-01-08T21:30:13.468Z,0.90
2023-01-08T21:32:40.653Z,0.95
2023-01-08T21:35:07.901Z,1.92
2023-01-08T21:37:37.001Z,1.10
2023-01-08T21:40:04.671Z,1.33
2023-01-08T21:42:50.464Z,0.65
2023-01-08T21:45:27.599Z,1.77
2023-01-08T21:47:57.300Z,1.30
2023-01-08T21:50:25.624Z,0.95
2023-01-08T21:53:11.647Z,1.17
2023-01-08T21:55:38.818Z,0.90
2023-01-08T21:58:05.939Z,0.80
2023-01-08T22:00:33.153Z,1.02
2023-01-08T22:03:00.414Z,1.20
2023-01-08T22:05:28.125Z,0.90
2023-01-08T22:07:55.213Z,0.70
2023-01-08T22:10:22.287Z,1.08
2023-01-08T22:12:49.441Z,0.90
2023-01-08T22:15:16.645Z,0.90
2023-01-08T22:17:43.687Z,1.23
2023-01-08T22:20:11.208Z,0.68
2023-01-08T22:22:38.695Z,1.10
2023-01-08T22:25:06.119Z,0.80
2023-01-08T22:27:33.225Z,0.95
2023-01-08T22:30:00.362Z,0.93
2023-01-08T22:32:27.436Z,0.70
2023-01-08T22:34:54.587Z,0.73
2023-01-08T22:37:22.337Z,0.80
2023-01-08T22:39:49.771Z,1.13
2023-01-08T22:42:17.779Z,1.00
2023-01-08T22:44:44.922Z,1.38
2023-01-08T22:47:12.072Z,1.10
2023-01-08T22:49:39.239Z,1.40
2023-01-08T22:52:07.200Z,1.27
2023-01-08T22:54:34.341Z,1.13
2023-01-08T22:57:01.523Z,0.80
2023-01-08T22:59:28.636Z,1.00
2023-01-08T23:01:55.723Z,1.17
2023-01-08T23:04:22.805Z,0.85
2023-01-08T23:06:49.929Z,1.20
2023-01-08T23:09:17.525Z,0.98
2023-01-08T23:11:44.827Z,1.05
2023-01-08T23:14:16.269Z,1.35
2023-01-08T23:16:43.954Z,0.98
2023-01-08T23:19:11.176Z,1.55
2023-01-08T23:21:38.685Z,1.15
2023-01-08T23:24:06.780Z,1.10
2023-01-08T23:26:33.863Z,1.08
2023-01-08T23:29:01.083Z,1.00
2023-01-08T23:31:29.126Z,1.15
2023-01-08T23:33:56.692Z,1.05
2023-01-08T23:36:24.036Z,1.30
2023-01-08T23:38:52.680Z,0.93
2023-01-08T23:41:20.876Z,1.05
2023-01-08T23:43:49.185Z,0.77
2023-01-08T23:46:17.036Z,1.05
2023-01-08T23:48:44.316Z,0.98
2023-01-08T23:51:11.505Z,0.88
2023-01-08T23:53:38.619Z,0.80
2023-01-08T23:56:05.883Z,0.73
2023-01-08T23:58:33.129Z,1.45
